Time;durP1;ratioP1;P1;durP2;ratioP2;P2;SDS_P1;SDS_P2;PMS_P1;PMS_P2;Temp;Humidity;BMP_temperature;BMP_pressure;BME280_temperature;BME280_humidity;BME280_pressure;Samples;Min_cycle;Max_cycle;Signal;HPM_P1;HPM_P2
2021/09/22 00:01:01;;;;;;;8.27;6.20;;;;;;;18.49;52.06;100207.28;5052426;28;20120;-37
2021/09/22 00:03:27;;;;;;;8.10;6.28;;;;;;;18.11;52.68;100196.13;5051705;28;20029;-37
2021/09/22 00:05:52;;;;;;;10.48;6.53;;;;;;;18.11;52.40;100192.63;5051770;28;20037;-37
2021/09/22 00:08:18;;;;;;;9.38;6.28;;;;;;;17.86;52.84;100190.28;5051671;28;20025;-37
2021/09/22 00:10:43;;;;;;;10.20;7.00;;;;;;;17.70;52.33;100189.13;5052059;28;20086;-37
2021/09/22 00:13:09;;;;;;;10.48;7.25;;;;;;;17.46;53.46;100183.00;5051571;28;20489;-38
2021/09/22 00:15:34;;;;;;;8.65;6.72;;;;;;;17.67;53.12;100178.84;5051591;28;20499;-36
2021/09/22 00:18:00;;;;;;;10.43;7.05;;;;;;;17.64;53.33;100185.53;5051285;28;20032;-36
2021/09/22 00:20:25;;;;;;;12.50;7.85;;;;;;;17.13;53.81;100181.78;5051433;28;20024;-36
2021/09/22 00:22:51;;;;;;;11.10;7.35;;;;;;;17.48;53.42;100189.00;5051846;28;20491;-37
2021/09/22 00:25:17;;;;;;;11.60;7.80;;;;;;;17.18;53.64;100189.97;5051297;28;20038;-37
2021/09/22 00:27:43;;;;;;;10.65;7.32;;;;;;;17.26;53.88;100176.16;5051089;28;20025;-37
2021/09/22 00:30:11;;;;;;;9.85;7.57;;;;;;;17.54;52.42;100180.78;5051315;28;20025;-37
2021/09/22 00:32:37;;;;;;;12.43;8.37;;;;;;;17.42;53.20;100176.47;5051225;28;20024;-37
2021/09/22 00:35:03;;;;;;;12.27;8.45;;;;;;;17.33;52.83;100174.16;5049829;28;20263;-38
2021/09/22 00:37:29;;;;;;;12.07;8.23;;;;;;;17.60;51.94;100173.63;5051303;28;20021;-37
2021/09/22 00:39:54;;;;;;;11.40;8.40;;;;;;;17.56;52.76;100175.97;5051276;28;20024;-36
2021/09/22 00:42:20;;;;;;;13.18;8.18;;;;;;;17.68;51.77;100167.03;5050971;28;20025;-37
2021/09/22 00:44:49;;;;;;;12.40;8.30;;;;;;;17.46;52.53;100167.69;5050943;28;20027;-36
2021/09/22 00:47:15;;;;;;;12.73;8.57;;;;;;;17.45;52.44;100162.56;5051076;28;20027;-36
2021/09/22 00:49:40;;;;;;;12.82;8.25;;;;;;;17.10;53.38;100150.81;5051013;28;20439;-36
2021/09/22 00:52:06;;;;;;;12.40;8.30;;;;;;;17.22;52.98;100147.28;5051107;28;20036;-39
2021/09/22 00:54:31;;;;;;;11.82;8.55;;;;;;;17.17;53.42;100145.31;5049461;28;20021;-37
2021/09/22 00:56:57;;;;;;;13.30;8.25;;;;;;;17.03;53.67;100146.63;5049266;28;20017;-37
2021/09/22 00:59:22;;;;;;;13.48;9.35;;;;;;;16.85;53.67;100136.81;5050749;28;20405;-37
2021/09/22 01:01:50;;;;;;;12.07;8.48;;;;;;;16.91;54.66;100146.66;5051077;28;20104;-37
2021/09/22 01:04:16;;;;;;;13.20;8.73;;;;;;;17.11;53.71;100133.63;5051074;28;20162;-37
2021/09/22 01:06:42;;;;;;;14.38;9.05;;;;;;;16.90;54.47;100139.63;5049630;28;20044;-37
2021/09/22 01:09:08;;;;;;;12.90;9.38;;;;;;;16.83;54.28;100149.69;5049449;28;20025;-37
2021/09/22 01:11:35;;;;;;;14.40;9.43;;;;;;;16.97;54.40;100153.75;5048986;28;20079;-37
2021/09/22 01:14:01;;;;;;;12.38;8.82;;;;;;;16.70;54.81;100148.03;5050383;28;20045;-37
2021/09/22 01:16:26;;;;;;;13.40;8.98;;;;;;;16.79;55.45;100142.06;5049381;28;20036;-37
2021/09/22 01:18:52;;;;;;;16.27;9.27;;;;;;;16.96;55.17;100138.69;5050376;28;20508;-37
2021/09/22 01:21:21;;;;;;;13.45;9.23;;;;;;;16.99;54.25;100147.09;5050285;28;20047;-36
2021/09/22 01:23:46;;;;;;;13.15;9.00;;;;;;;16.59;55.02;100141.59;5050363;28;20071;-37
2021/09/22 01:26:12;;;;;;;13.07;8.50;;;;;;;16.34;56.39;100147.19;5050411;28;20032;-37
2021/09/22 01:28:38;;;;;;;12.68;8.82;;;;;;;16.47;56.10;100138.06;5050243;28;20017;-36
2021/09/22 01:31:03;;;;;;;14.27;9.32;;;;;;;16.60;55.42;100140.53;5049906;28;20013;-36
2021/09/22 01:33:29;;;;;;;13.60;9.02;;;;;;;16.69;54.49;100144.50;5049845;28;20074;-37
2021/09/22 01:35:54;;;;;;;12.38;8.90;;;;;;;16.91;54.37;100142.09;5050561;28;20022;-37
2021/09/22 01:38:22;;;;;;;11.57;8.43;;;;;;;17.05;53.81;100142.63;5050175;28;20448;-37
2021/09/22 01:41:06;;;;;;;12.35;9.27;;;;;;;16.74;54.71;100139.25;5050513;28;20021;-37
2021/09/22 01:43:33;;;;;;;14.18;8.95;;;;;;;16.96;54.64;100136.00;5050252;28;20194;-36
2021/09/22 01:45:59;;;;;;;12.88;9.48;;;;;;;17.08;53.39;100136.00;5049644;28;20021;-36
2021/09/22 01:48:24;;;;;;;12.48;9.07;;;;;;;17.53;53.66;100136.06;5049878;28;20027;-37
2021/09/22 01:50:50;;;;;;;12.98;9.25;;;;;;;17.72;52.44;100130.50;5050357;28;20021;-36
2021/09/22 01:53:15;;;;;;;13.68;9.38;;;;;;;17.41;52.54;100132.63;5049920;28;20033;-36
2021/09/22 01:55:41;;;;;;;13.27;9.68;;;;;;;17.58;52.61;100136.19;5051625;28;20496;-37
2021/09/22 01:58:06;;;;;;;11.98;9.15;;;;;;;17.88;51.37;100137.03;5054230;28;20442;-37
2021/09/22 02:00:32;;;;;;;12.40;9.00;;;;;;;17.59;52.71;100137.81;5054035;28;20508;-37
2021/09/22 02:02:57;;;;;;;12.80;9.48;;;;;;;17.38;52.95;100135.78;5054010;28;20170;-37
2021/09/22 02:05:23;;;;;;;12.90;8.82;;;;;;;17.44;52.40;100134.84;5054211;28;20040;-37
2021/09/22 02:07:48;;;;;;;12.57;8.98;;;;;;;17.08;52.89;100125.25;5053600;28;20098;-37
2021/09/22 02:10:14;;;;;;;14.60;9.43;;;;;;;17.00;53.97;100116.47;5053680;28;20025;-37
2021/09/22 02:12:39;;;;;;;12.70;8.98;;;;;;;16.70;53.74;100119.28;5053397;28;20021;-37
2021/09/22 02:15:05;;;;;;;13.70;8.82;;;;;;;17.03;52.61;100120.56;5053841;28;20028;-37
2021/09/22 02:17:31;;;;;;;13.95;9.15;;;;;;;17.08;52.90;100127.94;5053506;28;20020;-37
2021/09/22 02:19:56;;;;;;;11.50;8.70;;;;;;;17.11;52.37;100125.56;5053570;28;20036;-37
2021/09/22 02:22:22;;;;;;;13.48;9.88;;;;;;;17.36;51.77;100119.91;5054006;28;20453;-37
2021/09/22 02:24:47;;;;;;;12.88;9.02;;;;;;;17.39;51.59;100126.66;5053598;28;20021;-37
2021/09/22 02:27:14;;;;;;;13.57;9.45;;;;;;;17.44;51.56;100134.84;5053288;28;20527;-37
2021/09/22 02:29:41;;;;;;;13.52;9.23;;;;;;;17.18;52.46;100139.69;5053483;28;20116;-37
2021/09/22 02:32:06;;;;;;;14.18;9.45;;;;;;;17.04;52.78;100138.34;5053512;28;20032;-37
2021/09/22 02:34:32;;;;;;;11.95;9.10;;;;;;;17.15;52.50;100142.88;5053612;28;20017;-37
2021/09/22 02:36:57;;;;;;;12.68;9.02;;;;;;;16.91;52.89;100141.28;5053224;28;20106;-37
2021/09/22 02:39:23;;;;;;;12.10;8.93;;;;;;;16.76;53.24;100142.53;5053293;28;20401;-37
2021/09/22 02:41:48;;;;;;;13.55;9.10;;;;;;;17.17;52.77;100145.31;5053305;28;20028;-37
2021/09/22 02:44:14;;;;;;;12.73;9.32;;;;;;;17.17;51.88;100142.63;5053022;28;20037;-37
2021/09/22 02:46:39;;;;;;;13.00;9.23;;;;;;;17.00;52.00;100146.06;5053168;28;20412;-37
2021/09/22 02:49:05;;;;;;;14.50;9.38;;;;;;;16.95;51.70;100139.75;5052916;28;20041;-37
2021/09/22 02:51:30;;;;;;;13.65;9.60;;;;;;;16.99;52.17;100149.78;5052978;28;20412;-37
2021/09/22 02:53:56;;;;;;;13.75;9.90;;;;;;;16.87;52.60;100156.22;5053180;28;20086;-37
2021/09/22 02:56:21;;;;;;;13.30;9.38;;;;;;;16.70;53.62;100151.53;5053310;28;20143;-37
2021/09/22 02:58:46;;;;;;;13.70;9.15;;;;;;;16.90;52.74;100142.31;5052700;28;20029;-37
2021/09/22 03:01:12;;;;;;;15.00;9.20;;;;;;;16.99;52.05;100148.97;5052969;28;20036;-37
2021/09/22 03:03:37;;;;;;;13.07;9.52;;;;;;;17.26;51.58;100148.44;5052758;28;20021;-37
2021/09/22 03:06:03;;;;;;;13.32;9.55;;;;;;;17.12;52.28;100148.72;5052698;28;20025;-37
2021/09/22 03:08:28;;;;;;;12.60;9.60;;;;;;;17.35;51.06;100155.09;5052795;28;20036;-37
2021/09/22 03:10:54;;;;;;;14.18;9.38;;;;;;;17.06;51.69;100141.59;5052866;28;20500;-37
2021/09/22 03:13:20;;;;;;;12.23;9.15;;;;;;;17.32;50.89;100134.03;5052569;28;20061;-38
2021/09/22 03:15:45;;;;;;;11.82;9.15;;;;;;;16.89;51.85;100132.63;5052631;28;20473;-37
2021/09/22 03:18:11;;;;;;;13.00;9.10;;;;;;;16.54;52.05;100128.03;5052538;28;20028;-37
2021/09/22 03:20:36;;;;;;;12.90;8.70;;;;;;;16.77;51.39;100129.91;5052639;28;20082;-37
2021/09/22 03:23:02;;;;;;;12.43;9.30;;;;;;;16.97;51.14;100129.56;5052321;28;20436;-37
2021/09/22 03:25:27;;;;;;;16.48;9.23;;;;;;;17.20;50.66;100126.81;5052535;28;20036;-37
2021/09/22 03:27:53;;;;;;;12.02;8.98;;;;;;;17.38;50.52;100127.69;5052375;28;20066;-37
2021/09/22 03:30:18;;;;;;;12.52;9.07;;;;;;;17.22;50.39;100123.09;5052336;28;20345;-37
2021/09/22 03:32:44;;;;;;;11.57;9.07;;;;;;;17.48;50.49;100136.00;5052249;28;20025;-37
2021/09/22 03:35:09;;;;;;;12.38;9.02;;;;;;;17.48;49.63;100135.19;5052465;28;20033;-37
2021/09/22 03:37:35;;;;;;;15.15;8.52;;;;;;;17.58;50.41;100136.19;5052211;28;20455;-37
2021/09/22 03:40:00;;;;;;;11.18;8.77;;;;;;;17.29;49.54;100132.66;5052223;28;20123;-37
2021/09/22 03:42:26;;;;;;;12.25;8.80;;;;;;;17.74;49.18;100128.38;5052081;28;20028;-37
2021/09/22 03:44:51;;;;;;;12.63;8.80;;;;;;;17.36;49.29;100122.59;5051677;28;20504;-37
2021/09/22 03:47:17;;;;;;;13.68;9.18;;;;;;;17.09;49.45;100119.59;5051869;28;20044;-37
2021/09/22 03:49:42;;;;;;;12.70;9.13;;;;;;;17.24;49.50;100139.81;5051781;28;20036;-38
2021/09/22 03:52:08;;;;;;;12.30;8.57;;;;;;;16.73;50.92;100134.91;5051728;28;20029;-38
2021/09/22 03:54:33;;;;;;;13.00;8.77;;;;;;;17.20;50.06;100132.19;5051820;28;20024;-38
2021/09/22 03:56:59;;;;;;;13.43;8.95;;;;;;;17.30;49.59;100134.28;5051744;28;20020;-37
2021/09/22 03:59:24;;;;;;;12.32;8.55;;;;;;;17.64;48.56;100128.22;5052055;28;20033;-38
2021/09/22 04:01:50;;;;;;;12.02;8.75;;;;;;;17.46;49.14;100107.69;5052583;28;20029;-38
2021/09/22 04:04:15;;;;;;;11.63;8.52;;;;;;;17.69;48.93;100136.38;5051700;28;20033;-37
2021/09/22 04:06:41;;;;;;;10.88;8.23;;;;;;;18.08;48.02;100131.97;5051306;28;20040;-37
2021/09/22 04:09:10;;;;;;;13.23;8.60;;;;;;;18.10;48.34;100140.63;5051811;28;20021;-38
2021/09/22 04:11:36;;;;;;;14.60;9.10;;;;;;;17.76;48.14;100132.50;5051620;28;20108;-38
2021/09/22 04:14:02;;;;;;;12.68;9.00;;;;;;;17.75;48.75;100138.09;5051469;28;20135;-40
2021/09/22 04:16:27;;;;;;;14.98;9.10;;;;;;;17.62;48.87;100127.63;5051129;28;20044;-38
2021/09/22 04:18:52;;;;;;;16.02;8.75;;;;;;;17.68;48.64;100122.09;5050925;28;20056;-37
2021/09/22 04:21:18;;;;;;;13.20;9.18;;;;;;;17.83;48.39;100118.88;5051920;28;20473;-38
2021/09/22 04:23:43;;;;;;;14.55;9.63;;;;;;;18.02;47.90;100116.81;5051273;28;20034;-39
2021/09/22 04:26:09;;;;;;;14.55;9.90;;;;;;;17.78;48.73;100108.00;5051448;28;20511;-38
2021/09/22 04:28:34;;;;;;;12.68;9.57;;;;;;;17.72;49.09;100112.47;5049824;28;20036;-39
2021/09/22 04:31:00;;;;;;;14.38;9.20;;;;;;;17.78;48.47;100113.38;5051553;28;20029;-38
2021/09/22 04:33:25;;;;;;;11.88;9.30;;;;;;;17.44;48.85;100107.09;5051322;28;20136;-48
2021/09/22 04:35:52;;;;;;;11.98;8.95;;;;;;;17.37;49.16;100113.44;5050046;28;20029;-48
2021/09/22 04:38:18;;;;;;;14.68;9.88;;;;;;;17.36;48.41;100108.31;5050515;28;20470;-49
2021/09/22 04:40:43;;;;;;;12.38;9.43;;;;;;;17.31;48.79;100114.41;5031092;28;20453;-48
2021/09/22 04:43:09;;;;;;;12.85;9.50;;;;;;;17.34;48.62;100116.63;5031490;28;20120;-48
2021/09/22 04:45:34;;;;;;;13.50;10.00;;;;;;;17.34;48.92;100105.88;5046294;28;20033;-49
2021/09/22 04:48:00;;;;;;;15.07;10.40;;;;;;;17.72;48.80;100114.34;5050892;28;20083;-48
2021/09/22 04:50:28;;;;;;;14.65;10.40;;;;;;;17.95;47.59;100118.81;5051243;28;20035;-48
2021/09/22 04:52:54;;;;;;;17.10;10.10;;;;;;;17.76;47.51;100115.50;5050490;28;20032;-48
2021/09/22 04:55:19;;;;;;;12.00;9.43;;;;;;;17.42;48.24;100110.06;5048000;28;20029;-51
2021/09/22 04:57:44;;;;;;;12.13;9.25;;;;;;;17.39;48.95;100113.22;5047776;28;20098;-48
2021/09/22 05:00:10;;;;;;;12.70;9.27;;;;;;;17.39;48.90;100114.03;5047655;28;20032;-47
2021/09/22 05:02:36;;;;;;;12.77;9.90;;;;;;;17.39;48.77;100116.72;5046464;28;20171;-50
2021/09/22 05:05:02;;;;;;;21.23;15.27;;;;;;;17.43;48.61;100113.56;5048612;28;20079;-51
2021/09/22 05:07:28;;;;;;;26.67;17.05;;;;;;;17.34;48.95;100108.56;5048080;28;20032;-47
2021/09/22 05:09:53;;;;;;;14.27;9.45;;;;;;;17.04;49.78;100111.44;5050061;28;20159;-50
2021/09/22 05:12:19;;;;;;;14.60;10.15;;;;;;;17.57;48.91;100096.06;5050465;28;20566;-48
2021/09/22 05:14:44;;;;;;;11.13;9.13;;;;;;;17.70;49.28;100109.22;5048334;28;20045;-51
2021/09/22 05:17:10;;;;;;;12.82;8.85;;;;;;;17.98;49.30;100105.69;5049376;28;20021;-48
2021/09/22 05:19:35;;;;;;;13.77;8.85;;;;;;;18.40;49.98;100114.44;5050324;28;20033;-49
2021/09/22 05:22:01;;;;;;;15.18;9.77;;;;;;;18.33;46.65;100106.50;5050690;28;20095;-51
2021/09/22 05:24:26;;;;;;;22.30;9.85;;;;;;;18.74;45.46;100105.25;5050706;28;20039;-50
2021/09/22 05:26:52;;;;;;;15.02;9.40;;;;;;;18.15;47.99;100100.31;5049308;28;20473;-47
2021/09/22 05:29:17;;;;;;;14.48;8.90;;;;;;;18.49;45.97;100102.19;5049744;28;20408;-50
2021/09/22 05:31:43;;;;;;;13.52;10.00;;;;;;;18.30;46.32;100099.75;5049380;28;20029;-49
2021/09/22 05:34:09;;;;;;;21.63;16.00;;;;;;;18.76;44.86;100095.03;5050028;28;20112;-48
2021/09/22 05:36:34;;;;;;;13.27;9.43;;;;;;;18.68;44.84;100087.38;5050578;28;20108;-49
2021/09/22 05:39:00;;;;;;;13.13;9.13;;;;;;;19.12;45.22;100090.13;5050256;28;20036;-50
2021/09/22 05:41:25;;;;;;;11.77;8.60;;;;;;;19.66;43.47;100077.75;5049940;28;20437;-48
2021/09/22 05:43:50;;;;;;;12.43;9.40;;;;;;;19.96;43.55;100084.53;5049854;28;20346;-48
2021/09/22 05:46:16;;;;;;;12.25;8.20;;;;;;;19.94;42.97;100082.06;5049976;28;20043;-51
2021/09/22 05:48:41;;;;;;;14.18;8.95;;;;;;;20.22;42.06;100083.66;5049996;28;20449;-48
2021/09/22 05:51:07;;;;;;;11.25;8.15;;;;;;;20.14;42.73;100086.81;5049964;28;20032;-49
2021/09/22 05:53:32;;;;;;;11.52;8.43;;;;;;;20.05;40.17;100078.38;5049788;28;20033;-48
2021/09/22 05:55:58;;;;;;;11.10;8.30;;;;;;;19.68;43.14;100070.19;5049871;28;20337;-47
2021/09/22 05:58:24;;;;;;;12.38;8.55;;;;;;;19.95;40.82;100081.00;5049967;28;20096;-50
2021/09/22 06:00:51;;;;;;;15.27;11.50;;;;;;;20.21;42.17;100084.72;5050323;28;20104;-48
2021/09/22 06:03:17;;;;;;;12.45;9.13;;;;;;;19.84;40.98;100080.09;5050259;28;20416;-50
2021/09/22 06:05:43;;;;;;;10.45;8.48;;;;;;;20.19;40.92;100084.16;5050209;28;20025;-48
2021/09/22 06:08:08;;;;;;;12.02;8.07;;;;;;;20.31;42.26;100084.81;5050098;28;20021;-48
2021/09/22 06:10:36;;;;;;;11.68;7.95;;;;;;;20.72;41.18;100091.56;5050378;28;20053;-49
2021/09/22 06:13:02;;;;;;;13.02;7.93;;;;;;;21.06;40.75;100092.81;5049983;28;20069;-49
2021/09/22 06:15:28;;;;;;;10.82;8.18;;;;;;;20.85;39.09;100086.50;5049870;28;20583;-46
2021/09/22 06:17:53;;;;;;;13.82;8.07;;;;;;;20.41;40.52;100091.34;5049963;28;20017;-51
2021/09/22 06:20:18;;;;;;;11.38;8.20;;;;;;;19.70;41.48;100078.84;5049748;28;20028;-47
2021/09/22 06:22:44;;;;;;;15.18;9.65;;;;;;;19.61;41.71;100074.97;5050078;28;20436;-48
2021/09/22 06:25:10;;;;;;;10.07;8.00;;;;;;;19.67;41.40;100064.00;5049869;28;20036;-49
2021/09/22 06:27:35;;;;;;;10.85;7.65;;;;;;;19.94;42.19;100075.88;5049898;28;20029;-49
2021/09/22 06:30:01;;;;;;;10.30;7.78;;;;;;;19.61;41.09;100083.06;5048035;28;20021;-50
2021/09/22 06:32:26;;;;;;;12.65;7.75;;;;;;;19.32;41.38;100083.31;5049741;28;20029;-51
2021/09/22 06:34:52;;;;;;;10.13;7.38;;;;;;;19.46;41.79;100081.88;5049481;28;20067;-51
2021/09/22 06:37:17;;;;;;;8.90;7.45;;;;;;;19.36;41.46;100080.94;5049461;28;20025;-48
2021/09/22 06:39:43;;;;;;;10.43;7.28;;;;;;;19.41;40.74;100084.50;5048469;28;20420;-48
2021/09/22 06:42:08;;;;;;;12.70;7.40;;;;;;;18.91;41.42;100083.66;5051213;28;20025;-49
2021/09/22 06:44:34;;;;;;;8.30;7.13;;;;;;;19.31;40.84;100081.72;5053166;28;20044;-50
2021/09/22 06:47:00;;;;;;;9.77;7.25;;;;;;;19.11;40.88;100075.03;5052691;28;20036;-50
2021/09/22 06:49:25;;;;;;;9.52;7.05;;;;;;;19.21;40.70;100086.97;5052992;28;20021;-49
2021/09/22 06:51:51;;;;;;;9.50;6.80;;;;;;;18.62;42.00;100082.16;5051799;28;20418;-51
2021/09/22 06:54:16;;;;;;;10.13;7.47;;;;;;;18.92;41.30;100081.78;5052965;28;20021;-51
2021/09/22 06:56:42;;;;;;;10.63;6.68;;;;;;;19.04;41.01;100084.34;5053115;28;20017;-49
2021/09/22 06:59:07;;;;;;;10.77;7.15;;;;;;;19.46;40.01;100081.88;5052922;28;20432;-50
2021/09/22 07:01:33;;;;;;;9.10;7.35;;;;;;;19.51;39.83;100079.22;5053122;28;20032;-50
2021/09/22 07:03:58;;;;;;;10.10;7.30;;;;;;;19.27;40.57;100084.09;5052592;28;20025;-48
2021/09/22 07:06:24;;;;;;;9.40;7.25;;;;;;;19.03;41.21;100083.53;5052725;28;20033;-50
2021/09/22 07:08:50;;;;;;;13.32;7.68;;;;;;;19.23;40.77;100076.75;5052398;28;20032;-51
2021/09/22 07:11:15;;;;;;;12.93;7.97;;;;;;;19.11;41.36;100088.50;5053018;28;20029;-50
2021/09/22 07:13:41;;;;;;;10.38;7.65;;;;;;;18.65;42.34;100089.75;5052598;28;20413;-51
2021/09/22 07:16:08;;;;;;;12.57;7.45;;;;;;;18.85;41.53;100083.81;5052827;28;20342;-50
2021/09/22 07:18:34;;;;;;;10.73;7.70;;;;;;;19.14;40.47;100093.38;5052504;28;20091;-48
2021/09/22 07:21:00;;;;;;;11.23;7.68;;;;;;;18.86;40.58;100080.88;5052472;28;20060;-50
2021/09/22 07:23:27;;;;;;;10.13;6.95;;;;;;;18.71;40.30;100080.66;5051959;28;20021;-48
2021/09/22 07:25:52;;;;;;;13.32;7.40;;;;;;;18.73;40.38;100084.75;5050648;28;20404;-50
2021/09/22 07:28:18;;;;;;;9.88;6.68;;;;;;;18.62;40.39;100079.44;5050781;28;20029;-49
2021/09/22 07:30:43;;;;;;;8.75;6.35;;;;;;;17.90;41.20;100071.09;5051149;28;20036;-48
2021/09/22 07:33:09;;;;;;;8.82;6.20;;;;;;;18.29;40.65;100073.88;5049578;28;20559;-51
2021/09/22 07:35:34;;;;;;;7.60;6.05;;;;;;;18.32;39.50;100073.38;5049770;28;20029;-49
2021/09/22 07:38:01;;;;;;;8.57;6.28;;;;;;;18.01;40.03;100071.25;5051756;28;20021;-48
2021/09/22 07:40:27;;;;;;;8.20;6.30;;;;;;;18.51;39.12;100070.44;5049229;28;20025;-48
2021/09/22 07:42:53;;;;;;;10.30;6.13;;;;;;;18.40;39.47;100065.94;5051654;28;20177;-48
2021/09/22 07:45:18;;;;;;;7.90;6.20;;;;;;;18.01;40.36;100065.88;5051456;28;20036;-51
2021/09/22 07:47:44;;;;;;;8.27;6.00;;;;;;;17.96;39.68;100064.75;5050740;28;20537;-50
2021/09/22 07:50:10;;;;;;;8.88;6.50;;;;;;;18.38;39.53;100073.47;5051354;28;20040;-49
2021/09/22 07:52:36;;;;;;;10.82;6.82;;;;;;;18.21;39.93;100076.19;5051234;28;20032;-48
2021/09/22 07:55:04;;;;;;;10.32;6.95;;;;;;;18.64;40.05;100064.69;5051606;28;20024;-50
2021/09/22 07:57:29;;;;;;;8.82;6.55;;;;;;;18.97;39.60;100060.28;5051888;28;20095;-47
2021/09/22 07:59:55;;;;;;;8.65;6.72;;;;;;;18.87;40.97;100057.47;5051904;28;20056;-47
2021/09/22 08:02:21;;;;;;;10.20;6.80;;;;;;;18.60;38.36;100055.47;5051608;28;20496;-49
2021/09/22 08:04:46;;;;;;;11.95;7.57;;;;;;;18.80;38.68;100060.31;5051613;28;20028;-47
2021/09/22 08:07:12;;;;;;;10.20;7.07;;;;;;;18.98;38.05;100053.00;5051195;28;20021;-49
2021/09/22 08:09:37;;;;;;;8.27;6.78;;;;;;;18.81;38.43;100053.88;5051455;28;20392;-48
2021/09/22 08:12:03;;;;;;;7.50;6.70;;;;;;;18.71;38.11;100034.84;5051430;28;20028;-49
2021/09/22 08:14:31;;;;;;;8.02;6.38;;;;;;;19.09;37.53;100038.56;5051460;28;20053;-48
2021/09/22 08:16:58;;;;;;;11.65;7.40;;;;;;;18.94;37.44;100050.81;5051412;28;20022;-48
2021/09/22 08:19:23;;;;;;;7.95;6.93;;;;;;;19.00;37.26;100046.28;5051493;28;20460;-47
2021/09/22 08:21:49;;;;;;;8.73;6.57;;;;;;;19.49;36.98;100042.75;5051075;28;20039;-50
2021/09/22 08:24:14;;;;;;;12.65;6.65;;;;;;;18.66;38.06;100035.59;5051284;28;20100;-47
2021/09/22 08:26:40;;;;;;;8.45;6.32;;;;;;;19.16;37.12;100033.78;5050795;28;20182;-50
2021/09/22 08:29:05;;;;;;;7.38;6.20;;;;;;;19.54;37.30;100029.31;5051033;28;20112;-48
2021/09/22 08:31:31;;;;;;;7.40;6.07;;;;;;;19.12;36.85;100019.19;5050941;28;20021;-49
2021/09/22 08:33:56;;;;;;;7.30;5.97;;;;;;;18.69;37.72;100024.28;5050924;28;20017;-48
2021/09/22 08:36:22;;;;;;;7.47;5.72;;;;;;;19.10;37.07;100024.03;5050983;28;20029;-48
2021/09/22 08:38:47;;;;;;;9.50;6.40;;;;;;;19.51;36.80;100021.72;5051022;28;20029;-48
2021/09/22 08:41:13;;;;;;;8.25;6.28;;;;;;;19.67;37.08;100020.00;5050772;28;20028;-50
2021/09/22 08:43:38;;;;;;;7.25;6.43;;;;;;;19.05;37.20;100013.16;5051015;28;20029;-48
2021/09/22 08:46:04;;;;;;;9.05;6.15;;;;;;;18.84;37.20;100009.41;5050683;28;20082;-49
2021/09/22 08:48:29;;;;;;;8.95;6.43;;;;;;;18.46;38.04;100013.75;5049446;28;20040;-48
2021/09/22 08:50:55;;;;;;;11.50;7.35;;;;;;;18.86;37.56;100002.69;5050647;28;20025;-48
2021/09/22 08:53:21;;;;;;;10.50;6.50;;;;;;;19.01;37.48;99999.38;5050917;28;20024;-48
2021/09/22 08:55:46;;;;;;;8.35;6.32;;;;;;;19.28;37.13;100003.97;5050838;28;20039;-47
2021/09/22 08:58:12;;;;;;;9.75;6.82;;;;;;;19.76;36.90;99999.56;5050421;28;20423;-47
2021/09/22 09:00:37;;;;;;;9.23;6.35;;;;;;;19.75;37.61;100002.53;5050904;28;20036;-47
2021/09/22 09:03:03;;;;;;;9.82;6.40;;;;;;;19.70;36.18;99995.16;5051072;28;20043;-47
2021/09/22 09:05:28;;;;;;;8.57;6.15;;;;;;;19.78;36.28;99994.75;5050946;28;20035;-48
2021/09/22 09:07:58;;;;;;;11.65;6.38;;;;;;;19.75;35.79;99991.75;5050444;28;20085;-47
2021/09/22 09:10:29;;;;;;;8.52;6.00;;;;;;;19.33;36.00;99990.53;5049817;28;20158;-50
2021/09/22 09:12:58;;;;;;;8.13;6.00;;;;;;;19.19;35.93;99995.53;5048681;28;20053;-50
2021/09/22 09:15:23;;;;;;;12.13;6.22;;;;;;;19.32;36.54;99995.13;5048760;28;20029;-48
2021/09/22 09:17:50;;;;;;;10.65;5.90;;;;;;;19.59;36.19;99990.75;5048550;28;20417;-48
2021/09/22 09:20:23;;;;;;;11.07;5.53;;;;;;;19.48;36.36;100003.34;5049204;28;20367;-48
2021/09/22 09:23:14;;;;;;;6.90;5.60;;;;;;;19.30;36.00;99993.72;5048385;28;20021;-47
2021/09/22 09:25:45;;;;;;;8.02;5.43;;;;;;;19.37;35.52;99996.22;5048936;28;20056;-50
2021/09/22 09:28:22;;;;;;;8.23;5.45;;;;;;;18.87;35.45;99988.16;5046782;28;20175;-49
2021/09/22 09:30:48;;;;;;;7.15;4.90;;;;;;;18.45;35.93;99979.78;5047895;28;20137;-50
2021/09/22 09:33:52;;;;;;;5.28;4.65;;;;;;;19.15;34.47;99989.00;5048803;28;20079;-49
2021/09/22 09:36:34;;;;;;;6.45;4.80;;;;;;;18.88;34.35;99989.78;5049869;28;20029;-47
2021/09/22 09:39:03;;;;;;;9.07;6.20;;;;;;;18.90;34.68;99978.75;5049840;28;20094;-51
2021/09/22 09:41:40;;;;;;;6.50;5.28;;;;;;;19.57;33.84;99972.09;5049899;28;20489;-47
2021/09/22 09:44:07;;;;;;;7.90;4.80;;;;;;;19.79;33.58;99979.34;5049787;28;20078;-49
2021/09/22 09:46:33;;;;;;;7.15;5.32;;;;;;;19.32;34.18;99973.53;5049940;28;20108;-47
2021/09/22 09:49:15;;;;;;;7.05;5.00;;;;;;;19.54;33.98;99972.63;5049640;28;20031;-47
2021/09/22 09:51:43;;;;;;;6.55;5.05;;;;;;;19.33;34.05;99980.53;5049964;28;20021;-47
2021/09/22 09:54:29;;;;;;;6.53;5.13;;;;;;;19.66;34.09;99975.16;5049833;28;20025;-47
2021/09/22 09:56:56;;;;;;;5.97;4.97;;;;;;;18.96;34.89;99977.72;5049300;28;20025;-48
2021/09/22 09:59:23;;;;;;;13.23;5.40;;;;;;;19.12;34.14;99967.94;5049970;28;20032;-48
2021/09/22 10:01:50;;;;;;;8.00;4.70;;;;;;;18.53;35.09;99980.19;5049586;28;20033;-47
2021/09/22 10:04:17;;;;;;;6.03;4.38;;;;;;;18.92;34.64;99965.81;5050046;28;20044;-47
2021/09/22 10:06:43;;;;;;;7.75;5.63;;;;;;;18.56;35.26;99970.75;5049815;28;20078;-47
2021/09/22 10:09:09;;;;;;;7.97;5.60;;;;;;;18.56;35.35;99974.31;5049689;28;20029;-48
2021/09/22 10:11:35;;;;;;;8.43;4.88;;;;;;;19.11;34.59;99967.13;5048448;28;20036;-46
2021/09/22 10:14:02;;;;;;;8.65;5.10;;;;;;;19.23;34.48;99953.47;5049897;28;20124;-47
2021/09/22 10:16:28;;;;;;;8.48;5.50;;;;;;;19.02;34.80;99957.03;5050890;28;20111;-47
2021/09/22 10:18:56;;;;;;;10.50;5.30;;;;;;;18.61;35.68;99957.38;5053536;28;20025;-47
2021/09/22 10:21:22;;;;;;;7.93;5.30;;;;;;;19.05;36.10;99953.84;5052600;28;20443;-48
2021/09/22 10:23:50;;;;;;;6.95;5.53;;;;;;;18.87;35.66;99957.69;5036238;28;20474;-47
2021/09/22 10:26:15;;;;;;;8.38;5.80;;;;;;;19.08;35.43;99956.03;5052628;28;20424;-47
2021/09/22 10:28:42;;;;;;;6.80;5.22;;;;;;;19.25;35.19;99950.53;5035557;28;20021;-46
2021/09/22 10:31:37;;;;;;;7.35;5.90;;;;;;;19.37;35.14;99943.06;5053755;28;20037;-47
2021/09/22 10:34:03;;;;;;;8.65;5.53;;;;;;;19.90;34.49;99946.75;5053273;28;20044;-47
2021/09/22 10:36:46;;;;;;;10.77;5.82;;;;;;;19.67;34.19;99936.31;5053588;28;20029;-49
2021/09/22 10:39:35;;;;;;;8.90;5.80;;;;;;;19.29;34.41;99936.25;5053502;28;20495;-48
2021/09/22 10:42:00;;;;;;;9.15;5.40;;;;;;;18.90;35.01;99932.91;5053538;28;20033;-47
2021/09/22 10:44:36;;;;;;;7.57;5.78;;;;;;;19.06;34.81;99936.59;5053282;28;20547;-48
2021/09/22 10:47:27;;;;;;;6.68;5.68;;;;;;;19.49;34.14;99938.31;5053629;28;20385;-47
2021/09/22 10:49:53;;;;;;;7.35;5.78;;;;;;;19.29;34.12;99938.97;5053012;28;20094;-47
2021/09/22 10:52:32;;;;;;;7.55;5.75;;;;;;;19.04;34.66;99933.31;5051620;28;20029;-47
2021/09/22 10:55:17;;;;;;;6.60;5.47;;;;;;;18.78;34.72;99932.22;5052840;28;20051;-48
2021/09/22 10:57:45;;;;;;;7.85;5.60;;;;;;;18.71;34.70;99930.53;5052740;28;20087;-48
2021/09/22 11:00:18;;;;;;;7.10;5.47;;;;;;;18.83;34.39;99932.28;5052778;28;20025;-51
2021/09/22 11:02:53;;;;;;;8.10;6.20;;;;;;;18.62;34.87;99926.66;5052777;28;20027;-49
2021/09/22 11:05:27;;;;;;;9.13;6.20;;;;;;;18.52;35.60;99919.28;5051467;28;20036;-49
2021/09/22 11:07:53;;;;;;;9.27;6.10;;;;;;;18.98;34.24;99921.66;5052649;28;20074;-48
2021/09/22 11:10:31;;;;;;;7.47;6.20;;;;;;;19.00;33.95;99916.84;5052883;28;20029;-48
2021/09/22 11:13:31;;;;;;;8.05;6.40;;;;;;;19.28;34.09;99917.63;5053258;28;20140;-48
2021/09/22 11:16:14;;;;;;;9.48;6.47;;;;;;;19.12;33.92;99916.69;5053265;28;20469;-50
2021/09/22 11:18:50;;;;;;;9.10;6.55;;;;;;;19.07;34.19;99912.03;5052828;28;20024;-51
2021/09/22 11:21:18;;;;;;;11.10;6.65;;;;;;;18.60;34.56;99914.50;5052728;28;20037;-48